createdAt,value
2023-05-08T00:01:02.818Z,45.70
2023-05-08T00:03:29.940Z,45.56
2023-05-08T00:05:56.957Z,45.62
2023-05-08T00:08:23.911Z,45.43
2023-05-08T00:10:51.091Z,45.76
2023-05-08T00:13:18.144Z,45.61
2023-05-08T00:15:45.306Z,45.37
2023-05-08T00:18:12.727Z,45.10
2023-05-08T00:20:39.846Z,44.96
2023-05-08T00:23:06.653Z,44.92
2023-05-08T00:25:33.655Z,44.59
2023-05-08T00:28:01.011Z,44.39
2023-05-08T00:30:28.022Z,44.29
2023-05-08T00:32:55.076Z,44.10
2023-05-08T00:35:22.100Z,44.06
2023-05-08T00:37:49.051Z,44.09
2023-05-08T00:40:16.227Z,44.09
2023-05-08T00:42:43.282Z,44.09
2023-05-08T00:45:10.758Z,43.98
2023-05-08T00:47:37.950Z,44.03
2023-05-08T00:50:05.541Z,43.89
2023-05-08T00:52:33.271Z,43.90
2023-05-08T00:55:05.209Z,44.05
2023-05-08T00:57:33.022Z,43.98
2023-05-08T01:00:00.329Z,44.30
2023-05-08T01:02:27.666Z,44.36
2023-05-08T01:04:54.622Z,44.44
2023-05-08T01:07:21.549Z,44.46
2023-05-08T01:09:49.114Z,44.67
2023-05-08T01:12:31.198Z,44.82
2023-05-08T01:15:10.225Z,44.88
2023-05-08T01:17:57.821Z,45.13
2023-05-08T01:20:37.228Z,45.43
2023-05-08T01:23:51.795Z,45.44
2023-05-08T01:26:39.731Z,45.40
2023-05-08T01:29:27.842Z,45.50
2023-05-08T01:32:06.913Z,45.84
2023-05-08T01:34:34.244Z,45.65
2023-05-08T01:37:03.505Z,45.65
2023-05-08T01:39:44.171Z,45.75
2023-05-08T01:42:24.261Z,45.86
2023-05-08T01:44:56.818Z,46.06
2023-05-08T01:47:25.083Z,46.02
2023-05-08T01:49:59.023Z,46.03
2023-05-08T01:52:43.397Z,45.73
2023-05-08T01:55:14.386Z,45.55
2023-05-08T01:57:45.266Z,45.45
2023-05-08T02:00:12.908Z,45.50
2023-05-08T02:02:40.325Z,45.47
2023-05-08T02:05:08.066Z,45.47
2023-05-08T02:07:38.019Z,45.56
2023-05-08T02:10:06.115Z,45.62
2023-05-08T02:12:33.255Z,45.79
2023-05-08T02:15:01.052Z,45.97
2023-05-08T02:17:28.032Z,46.05
2023-05-08T02:19:56.185Z,46.15
2023-05-08T02:22:23.428Z,46.08
2023-05-08T02:24:53.317Z,46.08
2023-05-08T02:27:21.350Z,46.04
2023-05-08T02:29:48.391Z,46.13
2023-05-08T02:32:15.342Z,46.28
2023-05-08T02:34:51.120Z,46.39
2023-05-08T02:37:26.772Z,46.40
2023-05-08T02:39:54.145Z,46.46
2023-05-08T02:42:21.129Z,46.59
2023-05-08T02:44:48.102Z,46.74
2023-05-08T02:47:15.041Z,46.81
2023-05-08T02:49:59.988Z,46.83
2023-05-08T02:52:32.588Z,46.79
2023-05-08T02:55:11.693Z,46.90
2023-05-08T02:57:57.084Z,47.08
2023-05-08T03:00:29.133Z,47.35
2023-05-08T03:03:00.249Z,47.47
2023-05-08T03:05:31.758Z,47.69
2023-05-08T03:08:11.298Z,47.99
2023-05-08T03:10:38.583Z,48.13
2023-05-08T03:13:06.707Z,48.24
2023-05-08T03:15:37.827Z,48.28
2023-05-08T03:18:14.599Z,48.50
2023-05-08T03:20:43.729Z,48.40
2023-05-08T03:23:11.173Z,48.15
2023-05-08T03:25:38.780Z,48.18
2023-05-08T03:28:05.961Z,48.11
2023-05-08T03:30:36.298Z,48.22
2023-05-08T03:33:08.049Z,48.16
2023-05-08T03:35:36.550Z,47.96
2023-05-08T03:38:04.466Z,47.95
2023-05-08T03:40:31.413Z,47.93
2023-05-08T03:42:58.749Z,48.20
2023-05-08T03:45:25.728Z,48.14
2023-05-08T03:47:53.961Z,48.15
2023-05-08T03:50:21.712Z,48.34
2023-05-08T03:52:48.658Z,48.13
2023-05-08T03:55:15.715Z,48.26
2023-05-08T03:57:50.426Z,48.21
2023-05-08T04:00:27.216Z,48.35
2023-05-08T04:03:01.103Z,48.43
2023-05-08T04:05:34.663Z,48.45
2023-05-08T04:08:11.761Z,48.38
2023-05-08T04:10:44.393Z,48.62
2023-05-08T04:13:16.130Z,48.84
2023-05-08T04:15:52.177Z,48.71
2023-05-08T04:18:22.979Z,48.60
2023-05-08T04:20:50.037Z,48.62
2023-05-08T04:23:18.660Z,48.72
2023-05-08T04:25:45.916Z,48.59
2023-05-08T04:28:13.006Z,48.52
2023-05-08T04:30:40.255Z,48.28
2023-05-08T04:33:07.586Z,48.29
2023-05-08T04:35:34.739Z,48.05
2023-05-08T04:38:02.423Z,48.07
2023-05-08T04:40:29.438Z,48.24
2023-05-08T04:42:56.809Z,47.90
2023-05-08T04:45:24.097Z,48.07
2023-05-08T04:47:51.137Z,48.00
2023-05-08T04:50:18.158Z,47.89
2023-05-08T04:52:45.125Z,47.71
2023-05-08T04:55:12.253Z,47.42
2023-05-08T04:57:39.554Z,47.35
2023-05-08T05:00:07.217Z,47.40
2023-05-08T05:02:37.291Z,47.56
2023-05-08T05:05:05.906Z,47.35
2023-05-08T05:07:32.833Z,47.14
2023-05-08T05:10:00.456Z,47.15
2023-05-08T05:12:27.761Z,47.30
2023-05-08T05:14:54.750Z,47.34
2023-05-08T05:17:21.781Z,47.54
2023-05-08T05:19:51.443Z,47.61
2023-05-08T05:22:19.220Z,47.42
2023-05-08T05:24:46.318Z,47.64
2023-05-08T05:27:13.664Z,47.62
2023-05-08T05:29:40.776Z,47.40
2023-05-08T05:32:09.357Z,47.22
2023-05-08T05:34:36.770Z,47.28
2023-05-08T05:37:06.905Z,47.29
2023-05-08T05:39:34.068Z,47.22
2023-05-08T05:42:01.297Z,46.75
2023-05-08T05:44:29.200Z,46.65
2023-05-08T05:46:56.864Z,46.34
2023-05-08T05:49:24.451Z,46.29
2023-05-08T05:51:51.430Z,46.27
2023-05-08T05:54:18.737Z,46.53
2023-05-08T05:56:45.811Z,46.42
2023-05-08T05:59:12.767Z,46.12
2023-05-08T06:01:40.042Z,45.91
2023-05-08T06:04:07.226Z,46.13
2023-05-08T06:06:34.248Z,46.16
2023-05-08T06:09:01.570Z,46.10
2023-05-08T06:11:28.557Z,45.50
2023-05-08T06:13:55.548Z,45.20
2023-05-08T06:16:23.383Z,45.21
2023-05-08T06:18:53.375Z,45.42
2023-05-08T06:21:20.460Z,45.23
2023-05-08T06:23:50.745Z,45.07
2023-05-08T06:26:17.675Z,45.29
2023-05-08T06:28:44.646Z,45.21
2023-05-08T06:31:14.584Z,45.18
2023-05-08T06:33:41.556Z,45.25
2023-05-08T06:36:08.897Z,45.22
2023-05-08T06:38:35.931Z,44.65
2023-05-08T06:41:03.041Z,44.77
2023-05-08T06:43:32.869Z,44.71
2023-05-08T06:45:59.980Z,44.42
2023-05-08T06:48:29.532Z,44.12
2023-05-08T06:50:59.803Z,44.08
2023-05-08T06:53:26.682Z,43.94
2023-05-08T06:55:53.655Z,43.59
2023-05-08T06:58:20.798Z,43.60
2023-05-08T07:00:47.838Z,43.36
2023-05-08T07:03:15.059Z,43.80
2023-05-08T07:05:42.111Z,43.89
2023-05-08T07:08:12.258Z,43.57
2023-05-08T07:10:39.192Z,43.31
2023-05-08T07:13:08.898Z,43.10
2023-05-08T07:15:36.191Z,42.68
2023-05-08T07:18:03.707Z,42.45
2023-05-08T07:20:30.752Z,42.50
2023-05-08T07:23:02.302Z,42.74
2023-05-08T07:25:29.831Z,42.73
2023-05-08T07:27:57.444Z,42.59
2023-05-08T07:30:25.186Z,43.27
2023-05-08T07:32:52.292Z,43.34
2023-05-08T07:35:19.809Z,43.17
2023-05-08T07:37:46.874Z,43.14
2023-05-08T07:40:13.946Z,43.13
2023-05-08T07:42:44.375Z,42.89
2023-05-08T07:45:12.433Z,42.55
2023-05-08T07:47:48.917Z,42.74
2023-05-08T07:50:16.074Z,42.67
2023-05-08T07:52:42.995Z,42.37
2023-05-08T07:55:10.400Z,42.04
2023-05-08T07:57:38.235Z,42.13
2023-05-08T08:00:06.814Z,42.11
2023-05-08T08:02:40.929Z,42.21
2023-05-08T08:05:11.320Z,42.14
2023-05-08T08:07:38.841Z,41.95
2023-05-08T08:10:06.904Z,41.90
2023-05-08T08:12:34.312Z,41.85
2023-05-08T08:15:01.306Z,41.90
2023-05-08T08:17:29.025Z,42.01
2023-05-08T08:19:57.283Z,42.11
2023-05-08T08:22:36.634Z,41.85
2023-05-08T08:25:03.820Z,41.77
2023-05-08T08:27:30.678Z,41.70
2023-05-08T08:30:12.722Z,41.24
2023-05-08T08:32:44.067Z,41.05
2023-05-08T08:35:15.317Z,40.73
2023-05-08T08:37:43.142Z,40.22
2023-05-08T08:40:10.434Z,40.08
2023-05-08T08:42:37.907Z,39.73
2023-05-08T08:45:05.412Z,39.14
2023-05-08T08:47:37.528Z,38.93
2023-05-08T08:50:05.575Z,38.41
2023-05-08T08:52:38.550Z,38.47
2023-05-08T08:55:06.350Z,38.75
2023-05-08T08:57:33.986Z,39.19
2023-05-08T09:00:04.845Z,39.21
2023-05-08T09:02:33.313Z,39.10
2023-05-08T09:05:00.594Z,38.81
2023-05-08T09:07:30.104Z,38.97
2023-05-08T09:09:57.080Z,38.96
2023-05-08T09:12:24.013Z,39.09
2023-05-08T09:14:53.837Z,39.39
2023-05-08T09:17:27.042Z,39.85
2023-05-08T09:19:56.800Z,40.02
2023-05-08T09:22:24.502Z,39.84
2023-05-08T09:24:58.859Z,38.97
2023-05-08T09:27:27.332Z,39.07
2023-05-08T09:30:14.666Z,38.51
2023-05-08T09:32:42.937Z,38.57
2023-05-08T09:35:11.831Z,38.43
2023-05-08T09:37:43.202Z,38.74
2023-05-08T09:40:17.307Z,38.96
2023-05-08T09:42:44.638Z,38.59
2023-05-08T09:45:12.345Z,38.67
2023-05-08T09:47:40.289Z,38.61
2023-05-08T09:50:08.816Z,38.46
2023-05-08T09:52:37.949Z,38.58
2023-05-08T09:55:09.611Z,38.33
2023-05-08T09:57:39.360Z,37.81
2023-05-08T10:00:09.995Z,37.89
2023-05-08T10:02:41.113Z,37.81
2023-05-08T10:05:30.234Z,37.61
2023-05-08T10:07:58.126Z,37.38
2023-05-08T10:10:30.839Z,37.08
2023-05-08T10:12:58.936Z,36.98
2023-05-08T10:15:29.865Z,37.04
2023-05-08T10:18:06.640Z,37.05
2023-05-08T10:20:35.337Z,36.98
2023-05-08T10:23:02.405Z,37.24
2023-05-08T10:25:33.683Z,36.82
2023-05-08T10:28:12.103Z,36.57
2023-05-08T10:30:41.627Z,36.70
2023-05-08T10:33:10.122Z,35.97
2023-05-08T10:35:37.525Z,35.69
2023-05-08T10:38:04.682Z,35.59
2023-05-08T10:40:31.799Z,35.60
2023-05-08T10:42:58.868Z,35.03
2023-05-08T10:45:26.229Z,34.91
2023-05-08T10:48:16.926Z,34.81
2023-05-08T10:50:56.682Z,34.60
2023-05-08T10:53:48.440Z,34.54
2023-05-08T10:56:15.473Z,34.54
2023-05-08T10:58:42.514Z,34.68
2023-05-08T11:01:09.713Z,34.10
2023-05-08T11:03:42.773Z,33.46
2023-05-08T11:06:10.104Z,33.19
2023-05-08T11:08:47.099Z,32.12
2023-05-08T11:11:19.882Z,31.35
2023-05-08T11:14:16.303Z,31.67
2023-05-08T11:16:56.566Z,31.26
2023-05-08T11:19:27.163Z,31.14
2023-05-08T11:22:13.830Z,31.52
2023-05-08T11:24:41.720Z,31.87
2023-05-08T11:27:09.031Z,32.26
2023-05-08T11:30:39.376Z,32.39
2023-05-08T11:33:14.227Z,33.27
2023-05-08T11:36:01.330Z,33.86
2023-05-08T11:38:36.486Z,34.01
2023-05-08T11:41:10.592Z,33.90
2023-05-08T11:44:02.622Z,34.50
2023-05-08T11:46:35.894Z,34.26
2023-05-08T11:49:03.192Z,34.04
2023-05-08T11:51:33.450Z,33.97
2023-05-08T11:54:01.179Z,34.45
2023-05-08T11:56:28.203Z,35.06
2023-05-08T11:59:05.707Z,35.07
2023-05-08T12:01:33.192Z,35.34
2023-05-08T12:04:07.072Z,35.22
2023-05-08T12:06:37.906Z,35.41
2023-05-08T12:09:10.957Z,35.66
2023-05-08T12:11:39.470Z,35.69
2023-05-08T12:14:06.463Z,35.97
2023-05-08T12:16:38.863Z,36.16
2023-05-08T12:19:12.790Z,36.15
2023-05-08T12:21:47.835Z,35.88
2023-05-08T12:24:17.521Z,35.92
2023-05-08T12:26:44.475Z,36.43
2023-05-08T12:29:11.952Z,36.84
2023-05-08T12:31:39.144Z,37.37
2023-05-08T12:34:06.477Z,37.52
2023-05-08T12:36:37.039Z,37.90
2023-05-08T12:39:14.523Z,38.12
2023-05-08T12:41:50.203Z,38.02
2023-05-08T12:44:24.694Z,38.15
2023-05-08T12:46:57.271Z,38.41
2023-05-08T12:49:31.759Z,38.70
2023-05-08T12:52:09.239Z,38.53
2023-05-08T12:54:43.928Z,38.24
2023-05-08T12:57:14.655Z,38.44
2023-05-08T12:59:44.976Z,38.69
2023-05-08T13:02:21.198Z,38.95
2023-05-08T13:04:48.578Z,38.93
2023-05-08T13:07:15.891Z,39.23
2023-05-08T13:09:59.984Z,39.40
2023-05-08T13:12:26.916Z,39.59
2023-05-08T13:14:53.805Z,39.92
2023-05-08T13:17:21.382Z,40.17
2023-05-08T13:19:48.351Z,40.03
2023-05-08T13:22:15.438Z,40.01
2023-05-08T13:24:42.380Z,40.10
2023-05-08T13:27:09.585Z,40.12
2023-05-08T13:29:39.814Z,40.06
2023-05-08T13:32:06.777Z,40.27
2023-05-08T13:34:34.880Z,40.24
2023-05-08T13:37:03.149Z,40.39
2023-05-08T13:39:32.975Z,40.86
2023-05-08T13:42:00.009Z,41.45
2023-05-08T13:44:26.987Z,41.78
2023-05-08T13:46:53.934Z,41.91
2023-05-08T13:49:24.538Z,42.07
2023-05-08T13:51:56.459Z,42.42
2023-05-08T13:54:24.411Z,42.63
2023-05-08T13:56:51.379Z,42.90
2023-05-08T13:59:18.592Z,43.29
2023-05-08T14:01:45.705Z,43.40
2023-05-08T14:04:12.726Z,43.81
2023-05-08T14:06:39.915Z,44.46
2023-05-08T14:09:08.317Z,44.93
2023-05-08T14:11:35.295Z,45.30
2023-05-08T14:14:02.338Z,45.82
2023-05-08T14:16:31.039Z,45.78
2023-05-08T14:19:01.352Z,46.03
2023-05-08T14:21:28.397Z,46.49
2023-05-08T14:23:55.778Z,46.34
2023-05-08T14:26:22.935Z,46.34
2023-05-08T14:28:52.651Z,46.54
2023-05-08T14:31:19.773Z,47.15
2023-05-08T14:33:49.755Z,47.34
2023-05-08T14:36:16.863Z,47.45
2023-05-08T14:38:44.008Z,47.71
2023-05-08T14:41:16.376Z,47.34
2023-05-08T14:43:44.068Z,47.14
2023-05-08T14:46:11.217Z,47.51
2023-05-08T14:48:38.516Z,47.73
2023-05-08T14:51:05.779Z,49.26
2023-05-08T14:53:40.680Z,50.70
2023-05-08T14:56:34.613Z,50.51
2023-05-08T14:59:07.694Z,50.36
2023-05-08T15:01:35.438Z,49.76
2023-05-08T15:04:03.194Z,49.28
2023-05-08T15:06:31.156Z,49.28
2023-05-08T15:08:58.227Z,49.33
2023-05-08T15:11:26.170Z,50.37
2023-05-08T15:13:53.072Z,51.41
2023-05-08T15:16:20.001Z,50.30
2023-05-08T15:18:46.927Z,50.76
2023-05-08T15:21:13.851Z,52.18
2023-05-08T15:23:40.927Z,53.44
2023-05-08T15:26:08.478Z,54.43
2023-05-08T15:28:35.467Z,55.63
2023-05-08T15:31:05.015Z,56.87
2023-05-08T15:33:31.989Z,58.55
2023-05-08T15:35:59.109Z,60.59
2023-05-08T15:38:26.062Z,61.99
2023-05-08T15:40:52.997Z,62.78
2023-05-08T15:43:19.835Z,62.62
2023-05-08T15:45:46.778Z,62.59
2023-05-08T15:48:14.042Z,63.23
2023-05-08T15:50:40.889Z,63.78
2023-05-08T15:53:08.134Z,64.80
2023-05-08T15:55:35.016Z,65.41
2023-05-08T15:58:01.910Z,65.22
2023-05-08T16:00:40.963Z,65.60
2023-05-08T16:03:12.156Z,65.81
2023-05-08T16:05:39.755Z,64.25
2023-05-08T16:08:08.384Z,64.04
2023-05-08T16:10:35.520Z,64.21
2023-05-08T16:13:02.486Z,64.66
2023-05-08T16:15:29.416Z,64.91
2023-05-08T16:17:56.472Z,65.42
2023-05-08T16:20:23.583Z,66.35
2023-05-08T16:22:55.514Z,67.21
2023-05-08T16:25:22.559Z,68.05
2023-05-08T16:27:49.762Z,68.35
2023-05-08T16:30:17.318Z,67.90
2023-05-08T16:32:47.156Z,68.23
2023-05-08T16:35:14.730Z,68.86
2023-05-08T16:37:42.236Z,69.24
2023-05-08T16:40:09.578Z,69.11
2023-05-08T16:42:37.209Z,69.30
2023-05-08T16:45:08.152Z,69.29
2023-05-08T16:47:35.132Z,69.85
2023-05-08T16:50:02.187Z,70.66
2023-05-08T16:52:29.390Z,71.44
2023-05-08T16:54:56.262Z,71.51
2023-05-08T16:57:23.420Z,71.71
2023-05-08T16:59:50.311Z,72.04
2023-05-08T17:02:19.168Z,71.80
2023-05-08T17:04:49.495Z,71.55
2023-05-08T17:07:16.699Z,72.09
2023-05-08T17:09:43.750Z,72.34
2023-05-08T17:12:10.784Z,72.13
2023-05-08T17:14:39.517Z,72.97
2023-05-08T17:17:07.047Z,73.48
2023-05-08T17:19:34.923Z,73.70
2023-05-08T17:22:02.183Z,74.51
2023-05-08T17:24:32.724Z,74.73
2023-05-08T17:26:59.877Z,75.30
2023-05-08T17:29:26.962Z,75.47
2023-05-08T17:31:54.052Z,75.44
2023-05-08T17:34:23.046Z,75.36
2023-05-08T17:36:50.308Z,75.97
2023-05-08T17:39:20.059Z,76.38
2023-05-08T17:41:48.973Z,76.32
2023-05-08T17:44:16.668Z,76.37
2023-05-08T17:46:43.866Z,76.78
2023-05-08T17:49:10.867Z,76.60
2023-05-08T17:51:37.846Z,76.76
2023-05-08T17:54:04.769Z,76.75
2023-05-08T17:56:31.967Z,76.88
2023-05-08T17:58:58.874Z,76.92
2023-05-08T18:01:26.195Z,77.04
2023-05-08T18:03:53.549Z,77.07
2023-05-08T18:06:21.015Z,77.09
2023-05-08T18:08:48.129Z,77.73
2023-05-08T18:11:25.055Z,77.71
2023-05-08T18:13:55.021Z,77.84
2023-05-08T18:16:22.322Z,78.82
2023-05-08T18:18:49.809Z,79.19
2023-05-08T18:21:16.993Z,79.03
2023-05-08T18:23:44.233Z,78.71
2023-05-08T18:26:15.356Z,78.58
2023-05-08T18:28:42.477Z,79.42
2023-05-08T18:31:09.625Z,79.37
2023-05-08T18:33:37.421Z,79.27
2023-05-08T18:36:07.214Z,79.41
2023-05-08T18:38:34.768Z,79.51
2023-05-08T18:41:05.291Z,80.12
2023-05-08T18:43:32.330Z,80.43
2023-05-08T18:46:00.686Z,80.29
2023-05-08T18:48:27.923Z,80.38
2023-05-08T18:50:58.748Z,80.35
2023-05-08T18:53:26.003Z,80.50
2023-05-08T18:55:53.099Z,80.66
2023-05-08T18:58:20.015Z,80.98
2023-05-08T19:00:47.153Z,80.87
2023-05-08T19:03:14.324Z,81.21
2023-05-08T19:05:42.019Z,81.38
2023-05-08T19:08:09.031Z,81.51
2023-05-08T19:10:35.955Z,81.80
2023-05-08T19:13:03.047Z,81.69
2023-05-08T19:15:30.032Z,81.61
2023-05-08T19:17:56.998Z,81.67
2023-05-08T19:20:23.988Z,81.37
2023-05-08T19:22:50.887Z,81.64
2023-05-08T19:25:17.776Z,81.64
2023-05-08T19:27:44.757Z,82.12
2023-05-08T19:30:12.407Z,81.99
2023-05-08T19:32:39.635Z,82.25
2023-05-08T19:35:08.492Z,82.82
2023-05-08T19:37:35.736Z,82.92
2023-05-08T19:40:02.898Z,83.21
2023-05-08T19:42:29.780Z,83.77
2023-05-08T19:44:56.777Z,84.07
2023-05-08T19:47:23.713Z,84.59
2023-05-08T19:49:51.473Z,84.75
2023-05-08T19:52:18.499Z,84.52
2023-05-08T19:54:46.823Z,84.03
2023-05-08T19:57:13.794Z,84.09
2023-05-08T19:59:40.747Z,84.04
2023-05-08T20:02:07.667Z,84.50
2023-05-08T20:04:48.593Z,84.99
2023-05-08T20:07:21.483Z,84.83
2023-05-08T20:09:48.437Z,84.59
2023-05-08T20:12:15.441Z,84.31
2023-05-08T20:14:43.018Z,84.36
2023-05-08T20:17:09.927Z,84.12
2023-05-08T20:19:36.855Z,84.23
2023-05-08T20:22:03.912Z,84.25
2023-05-08T20:24:30.823Z,84.07
2023-05-08T20:26:58.049Z,84.34
2023-05-08T20:29:25.020Z,84.65
2023-05-08T20:31:52.086Z,84.83
2023-05-08T20:34:21.243Z,84.58
2023-05-08T20:36:49.661Z,84.07
2023-05-08T20:39:16.590Z,83.76
2023-05-08T20:41:43.558Z,83.35
2023-05-08T20:44:12.565Z,82.33
2023-05-08T20:46:41.004Z,81.80
2023-05-08T20:49:07.972Z,80.99
2023-05-08T20:51:36.543Z,80.79
2023-05-08T20:54:03.644Z,80.83
2023-05-08T20:56:30.648Z,80.99
2023-05-08T20:58:57.925Z,80.97
2023-05-08T21:01:24.898Z,80.26
2023-05-08T21:03:51.960Z,80.30
2023-05-08T21:06:18.851Z,80.18
2023-05-08T21:08:45.807Z,79.35
2023-05-08T21:11:13.029Z,78.85
2023-05-08T21:13:39.930Z,77.32
2023-05-08T21:16:08.459Z,76.57
2023-05-08T21:18:35.545Z,76.15
2023-05-08T21:21:02.749Z,75.86
2023-05-08T21:23:30.243Z,75.30
2023-05-08T21:25:57.284Z,74.30
2023-05-08T21:28:24.249Z,73.50
2023-05-08T21:30:51.197Z,73.16
2023-05-08T21:33:18.123Z,72.57
2023-05-08T21:35:45.328Z,71.99
2023-05-08T21:38:12.286Z,71.48
2023-05-08T21:40:39.481Z,71.21
2023-05-08T21:43:06.487Z,71.12
2023-05-08T21:45:33.546Z,70.70
2023-05-08T21:48:00.843Z,70.76
2023-05-08T21:50:30.786Z,70.93
2023-05-08T21:52:57.901Z,70.64
2023-05-08T21:55:24.986Z,71.09
2023-05-08T21:57:52.147Z,71.53
2023-05-08T22:00:20.436Z,71.71
2023-05-08T22:02:47.458Z,72.02
2023-05-08T22:05:14.771Z,72.20
2023-05-08T22:07:42.186Z,72.39
2023-05-08T22:10:10.553Z,73.06
2023-05-08T22:12:37.619Z,73.53
2023-05-08T22:15:09.516Z,74.02
2023-05-08T22:17:42.267Z,74.20
2023-05-08T22:20:12.262Z,74.55
2023-05-08T22:22:39.135Z,75.02
2023-05-08T22:25:06.737Z,75.22
2023-05-08T22:27:33.794Z,75.54
2023-05-08T22:30:01.546Z,75.63
2023-05-08T22:32:28.809Z,76.08
2023-05-08T22:34:55.955Z,77.01
2023-05-08T22:37:23.143Z,77.19
2023-05-08T22:39:50.079Z,77.57
2023-05-08T22:42:17.064Z,77.51
2023-05-08T22:44:44.073Z,77.85
2023-05-08T22:47:11.347Z,78.00
2023-05-08T22:49:39.612Z,78.34
2023-05-08T22:52:07.264Z,78.33
2023-05-08T22:54:34.191Z,78.47
2023-05-08T22:57:01.810Z,78.65
2023-05-08T22:59:28.805Z,78.91
2023-05-08T23:01:55.897Z,78.86
2023-05-08T23:04:22.968Z,78.77
2023-05-08T23:06:50.064Z,78.74
2023-05-08T23:09:16.982Z,78.54
2023-05-08T23:11:43.930Z,78.31
2023-05-08T23:14:10.830Z,77.99
2023-05-08T23:16:37.841Z,77.71
2023-05-08T23:19:05.219Z,77.40
2023-05-08T23:21:32.318Z,77.32
2023-05-08T23:23:59.485Z,77.22
2023-05-08T23:26:26.458Z,77.20
2023-05-08T23:28:53.460Z,77.41
2023-05-08T23:31:20.509Z,77.42
2023-05-08T23:33:47.545Z,77.82
2023-05-08T23:36:15.552Z,77.43
2023-05-08T23:38:42.563Z,77.43
2023-05-08T23:41:09.984Z,77.59
2023-05-08T23:43:36.990Z,77.54
2023-05-08T23:46:03.938Z,77.72
2023-05-08T23:48:31.045Z,77.69
2023-05-08T23:50:58.067Z,77.75
2023-05-08T23:53:25.004Z,78.36
2023-05-08T23:55:52.849Z,79.12
2023-05-08T23:58:19.880Z,79.48
